sensor_id;sensor_type;location;lat;lon;timestamp;pressure;altitude;pressure_sealevel;temperature;humidity
55486;BME280;71262;-25.924;28.194;2023-07-31T00:01:16;85733.55;;;16.91;32.20
55486;BME280;71262;-25.924;28.194;2023-07-31T00:03:41;85733.31;;;16.67;32.44
55486;BME280;71262;-25.924;28.194;2023-07-31T00:06:06;85737.08;;;16.81;32.28
55486;BME280;71262;-25.924;28.194;2023-07-31T00:08:31;85734.27;;;16.51;31.66
55486;BME280;71262;-25.924;28.194;2023-07-31T00:10:56;85735.50;;;16.38;33.07
55486;BME280;71262;-25.924;28.194;2023-07-31T00:13:22;85736.06;;;16.43;33.02
55486;BME280;71262;-25.924;28.194;2023-07-31T00:15:47;85734.90;;;16.70;32.72
55486;BME280;71262;-25.924;28.194;2023-07-31T00:18:12;85733.96;;;16.41;32.49
55486;BME280;71262;-25.924;28.194;2023-07-31T00:20:37;85733.77;;;16.74;32.36
55486;BME280;71262;-25.924;28.194;2023-07-31T00:23:02;85734.57;;;16.73;32.11
55486;BME280;71262;-25.924;28.194;2023-07-31T00:25:28;85734.67;;;16.71;32.12
55486;BME280;71262;-25.924;28.194;2023-07-31T00:27:53;85733.02;;;16.86;31.97
55486;BME280;71262;-25.924;28.194;2023-07-31T00:30:18;85734.39;;;16.94;31.58
55486;BME280;71262;-25.924;28.194;2023-07-31T00:32:43;85736.52;;;16.56;32.44
55486;BME280;71262;-25.924;28.194;2023-07-31T00:35:09;85737.35;;;16.44;32.77
55486;BME280;71262;-25.924;28.194;2023-07-31T00:37:34;85737.81;;;16.37;32.60
55486;BME280;71262;-25.924;28.194;2023-07-31T00:39:59;85736.44;;;16.42;32.52
55486;BME280;71262;-25.924;28.194;2023-07-31T00:42:25;85739.03;;;16.53;32.42
55486;BME280;71262;-25.924;28.194;2023-07-31T00:44:49;85742.69;;;16.39;32.28
55486;BME280;71262;-25.924;28.194;2023-07-31T00:47:15;85742.84;;;16.56;32.10
55486;BME280;71262;-25.924;28.194;2023-07-31T00:49:40;85745.59;;;16.82;32.12
55486;BME280;71262;-25.924;28.194;2023-07-31T00:52:06;85747.28;;;16.98;31.93
55486;BME280;71262;-25.924;28.194;2023-07-31T00:54:30;85745.67;;;16.92;31.97
55486;BME280;71262;-25.924;28.194;2023-07-31T00:56:56;85748.93;;;16.79;31.82
55486;BME280;71262;-25.924;28.194;2023-07-31T00:59:20;85746.62;;;16.85;31.29
55486;BME280;71262;-25.924;28.194;2023-07-31T01:01:46;85747.13;;;16.21;32.85
55486;BME280;71262;-25.924;28.194;2023-07-31T01:04:12;85744.83;;;16.17;32.86
55486;BME280;71262;-25.924;28.194;2023-07-31T01:06:40;85740.48;;;16.27;32.54
55486;BME280;71262;-25.924;28.194;2023-07-31T01:09:05;85739.57;;;16.46;32.33
55486;BME280;71262;-25.924;28.194;2023-07-31T01:11:29;85737.52;;;16.41;32.10
55486;BME280;71262;-25.924;28.194;2023-07-31T01:13:52;85736.67;;;16.80;31.94
55486;BME280;71262;-25.924;28.194;2023-07-31T01:16:17;85735.39;;;16.64;31.80
55486;BME280;71262;-25.924;28.194;2023-07-31T01:18:42;85737.17;;;16.67;31.76
55486;BME280;71262;-25.924;28.194;2023-07-31T01:21:18;85735.97;;;16.96;31.46
55486;BME280;71262;-25.924;28.194;2023-07-31T01:26:04;85735.10;;;16.75;31.65
55486;BME280;71262;-25.924;28.194;2023-07-31T01:28:28;85736.36;;;16.84;31.62
55486;BME280;71262;-25.924;28.194;2023-07-31T01:30:49;85733.45;;;16.66;31.78
55486;BME280;71262;-25.924;28.194;2023-07-31T01:33:15;85731.50;;;16.49;31.96
55486;BME280;71262;-25.924;28.194;2023-07-31T01:35:39;85734.76;;;16.85;31.87
55486;BME280;71262;-25.924;28.194;2023-07-31T01:38:05;85734.70;;;16.68;31.83
55486;BME280;71262;-25.924;28.194;2023-07-31T01:40:29;85733.77;;;16.81;31.67
55486;BME280;71262;-25.924;28.194;2023-07-31T01:42:54;85730.29;;;16.66;31.78
55486;BME280;71262;-25.924;28.194;2023-07-31T01:45:19;85725.34;;;16.57;31.85
55486;BME280;71262;-25.924;28.194;2023-07-31T01:47:44;85726.83;;;16.91;31.79
55486;BME280;71262;-25.924;28.194;2023-07-31T01:50:10;85723.85;;;16.60;31.79
55486;BME280;71262;-25.924;28.194;2023-07-31T01:52:35;85717.73;;;16.49;31.90
55486;BME280;71262;-25.924;28.194;2023-07-31T01:55:00;85722.95;;;16.53;31.84
55486;BME280;71262;-25.924;28.194;2023-07-31T01:57:25;85718.59;;;16.44;31.94
55486;BME280;71262;-25.924;28.194;2023-07-31T01:59:50;85717.11;;;16.41;31.95
55486;BME280;71262;-25.924;28.194;2023-07-31T02:02:16;85717.52;;;16.92;31.92
55486;BME280;71262;-25.924;28.194;2023-07-31T02:04:41;85712.94;;;16.35;31.97
55486;BME280;71262;-25.924;28.194;2023-07-31T02:07:06;85710.92;;;16.61;31.96
55486;BME280;71262;-25.924;28.194;2023-07-31T02:09:31;85708.77;;;16.48;31.81
55486;BME280;71262;-25.924;28.194;2023-07-31T02:11:57;85711.21;;;16.45;31.82
55486;BME280;71262;-25.924;28.194;2023-07-31T02:14:22;85706.64;;;16.65;31.86
55486;BME280;71262;-25.924;28.194;2023-07-31T02:16:47;85700.35;;;16.40;31.88
55486;BME280;71262;-25.924;28.194;2023-07-31T02:19:12;85692.53;;;16.70;31.54
55486;BME280;71262;-25.924;28.194;2023-07-31T02:21:37;85688.83;;;16.70;31.51
55486;BME280;71262;-25.924;28.194;2023-07-31T02:24:03;85685.34;;;16.63;31.56
55486;BME280;71262;-25.924;28.194;2023-07-31T02:26:28;85682.11;;;16.57;31.59
55486;BME280;71262;-25.924;28.194;2023-07-31T02:28:53;85683.84;;;16.72;31.41
55486;BME280;71262;-25.924;28.194;2023-07-31T02:31:18;85681.48;;;16.65;31.47
55486;BME280;71262;-25.924;28.194;2023-07-31T02:33:43;85683.35;;;16.87;31.49
55486;BME280;71262;-25.924;28.194;2023-07-31T02:36:08;85679.33;;;16.49;31.34
55486;BME280;71262;-25.924;28.194;2023-07-31T02:38:34;85682.61;;;16.66;31.65
55486;BME280;71262;-25.924;28.194;2023-07-31T02:40:59;85681.05;;;16.50;31.58
55486;BME280;71262;-25.924;28.194;2023-07-31T02:43:24;85679.56;;;16.59;31.45
55486;BME280;71262;-25.924;28.194;2023-07-31T02:45:52;85680.76;;;16.73;31.28
55486;BME280;71262;-25.924;28.194;2023-07-31T02:48:14;85682.78;;;16.54;31.21
55486;BME280;71262;-25.924;28.194;2023-07-31T02:50:40;85685.56;;;16.50;31.24
55486;BME280;71262;-25.924;28.194;2023-07-31T02:53:05;85684.01;;;16.61;31.38
55486;BME280;71262;-25.924;28.194;2023-07-31T02:55:30;85688.70;;;16.51;31.47
55486;BME280;71262;-25.924;28.194;2023-07-31T02:57:55;85688.24;;;16.89;31.58
55486;BME280;71262;-25.924;28.194;2023-07-31T03:00:20;85684.89;;;16.48;31.48
55486;BME280;71262;-25.924;28.194;2023-07-31T03:02:46;85689.88;;;16.68;31.49
55486;BME280;71262;-25.924;28.194;2023-07-31T03:05:11;85694.48;;;16.62;31.57
55486;BME280;71262;-25.924;28.194;2023-07-31T03:07:36;85696.05;;;16.46;31.74
55486;BME280;71262;-25.924;28.194;2023-07-31T03:10:01;85699.82;;;16.19;31.75
55486;BME280;71262;-25.924;28.194;2023-07-31T03:12:27;85703.54;;;16.51;31.70
55486;BME280;71262;-25.924;28.194;2023-07-31T03:14:52;85708.09;;;16.34;31.60
55486;BME280;71262;-25.924;28.194;2023-07-31T03:17:17;85709.04;;;16.37;31.53
55486;BME280;71262;-25.924;28.194;2023-07-31T03:19:42;85709.51;;;16.54;31.63
55486;BME280;71262;-25.924;28.194;2023-07-31T03:22:07;85716.22;;;16.62;31.73
55486;BME280;71262;-25.924;28.194;2023-07-31T03:24:32;85716.96;;;16.46;31.68
55486;BME280;71262;-25.924;28.194;2023-07-31T03:26:58;85716.43;;;16.26;31.60
55486;BME280;71262;-25.924;28.194;2023-07-31T03:29:23;85716.93;;;16.82;31.50
55486;BME280;71262;-25.924;28.194;2023-07-31T03:31:48;85718.65;;;16.51;31.55
55486;BME280;71262;-25.924;28.194;2023-07-31T03:34:13;85714.84;;;16.24;31.54
55486;BME280;71262;-25.924;28.194;2023-07-31T03:36:38;85712.42;;;16.39;31.78
55486;BME280;71262;-25.924;28.194;2023-07-31T03:39:03;85717.83;;;16.33;31.59
55486;BME280;71262;-25.924;28.194;2023-07-31T03:41:29;85721.94;;;16.37;31.53
55486;BME280;71262;-25.924;28.194;2023-07-31T03:43:54;85726.21;;;16.48;31.39
55486;BME280;71262;-25.924;28.194;2023-07-31T03:46:20;85726.58;;;16.25;31.60
55486;BME280;71262;-25.924;28.194;2023-07-31T03:48:45;85727.82;;;15.88;31.46
55486;BME280;71262;-25.924;28.194;2023-07-31T03:51:10;85729.06;;;15.97;30.52
55486;BME280;71262;-25.924;28.194;2023-07-31T03:53:35;85732.26;;;16.61;29.80
55486;BME280;71262;-25.924;28.194;2023-07-31T03:56:01;85738.71;;;16.80;29.44
55486;BME280;71262;-25.924;28.194;2023-07-31T03:58:26;85746.12;;;16.91;29.16
55486;BME280;71262;-25.924;28.194;2023-07-31T04:00:51;85748.23;;;16.79;28.92
55486;BME280;71262;-25.924;28.194;2023-07-31T04:03:16;85750.61;;;16.57;28.81
55486;BME280;71262;-25.924;28.194;2023-07-31T04:05:41;85755.39;;;16.83;28.67
55486;BME280;71262;-25.924;28.194;2023-07-31T04:08:06;85756.46;;;16.65;28.73
55486;BME280;71262;-25.924;28.194;2023-07-31T04:10:32;85753.81;;;16.84;28.69
55486;BME280;71262;-25.924;28.194;2023-07-31T04:12:57;85756.35;;;16.62;28.58
55486;BME280;71262;-25.924;28.194;2023-07-31T04:15:22;85759.32;;;16.91;28.44
55486;BME280;71262;-25.924;28.194;2023-07-31T04:17:47;85761.01;;;16.68;28.39
55486;BME280;71262;-25.924;28.194;2023-07-31T04:20:12;85763.06;;;16.96;28.30
55486;BME280;71262;-25.924;28.194;2023-07-31T04:22:37;85770.91;;;16.96;28.26
55486;BME280;71262;-25.924;28.194;2023-07-31T04:25:03;85774.70;;;17.01;28.17
55486;BME280;71262;-25.924;28.194;2023-07-31T04:27:28;85777.62;;;17.21;28.24
55486;BME280;71262;-25.924;28.194;2023-07-31T04:29:53;85782.55;;;16.59;28.12
55486;BME280;71262;-25.924;28.194;2023-07-31T04:32:18;85781.27;;;17.04;28.19
55486;BME280;71262;-25.924;28.194;2023-07-31T04:34:44;85783.82;;;16.85;28.14
55486;BME280;71262;-25.924;28.194;2023-07-31T04:37:10;85782.21;;;16.50;28.17
55486;BME280;71262;-25.924;28.194;2023-07-31T04:39:35;85783.85;;;16.94;28.12
55486;BME280;71262;-25.924;28.194;2023-07-31T04:42:00;85785.70;;;17.02;28.13
55486;BME280;71262;-25.924;28.194;2023-07-31T04:44:26;85789.54;;;16.98;28.06
55486;BME280;71262;-25.924;28.194;2023-07-31T04:46:51;85786.88;;;16.96;28.00
55486;BME280;71262;-25.924;28.194;2023-07-31T04:49:16;85789.32;;;16.95;28.00
55486;BME280;71262;-25.924;28.194;2023-07-31T04:51:41;85789.94;;;16.43;27.99
55486;BME280;71262;-25.924;28.194;2023-07-31T04:54:07;85789.15;;;16.97;27.89
55486;BME280;71262;-25.924;28.194;2023-07-31T04:56:32;85789.97;;;16.97;27.80
55486;BME280;71262;-25.924;28.194;2023-07-31T04:58:57;85791.82;;;16.93;27.86
55486;BME280;71262;-25.924;28.194;2023-07-31T05:01:23;85794.79;;;16.91;27.93
55486;BME280;71262;-25.924;28.194;2023-07-31T05:03:48;85795.21;;;16.71;27.83
55486;BME280;71262;-25.924;28.194;2023-07-31T05:06:13;85796.30;;;16.92;27.94
55486;BME280;71262;-25.924;28.194;2023-07-31T05:08:38;85796.62;;;16.72;27.91
55486;BME280;71262;-25.924;28.194;2023-07-31T05:11:03;85794.79;;;16.98;27.75
55486;BME280;71262;-25.924;28.194;2023-07-31T05:13:28;85797.66;;;17.14;27.71
55486;BME280;71262;-25.924;28.194;2023-07-31T05:15:54;85801.09;;;17.00;27.73
55486;BME280;71262;-25.924;28.194;2023-07-31T05:18:19;85805.66;;;17.15;27.73
55486;BME280;71262;-25.924;28.194;2023-07-31T05:20:45;85805.10;;;17.28;27.82
55486;BME280;71262;-25.924;28.194;2023-07-31T05:23:10;85809.15;;;17.28;27.98
55486;BME280;71262;-25.924;28.194;2023-07-31T05:25:36;85811.48;;;17.48;27.92
55486;BME280;71262;-25.924;28.194;2023-07-31T05:28:01;85815.34;;;17.54;27.97
55486;BME280;71262;-25.924;28.194;2023-07-31T05:30:26;85819.47;;;17.43;27.94
55486;BME280;71262;-25.924;28.194;2023-07-31T05:32:51;85817.93;;;17.87;27.77
55486;BME280;71262;-25.924;28.194;2023-07-31T05:35:16;85820.14;;;17.99;27.58
55486;BME280;71262;-25.924;28.194;2023-07-31T05:37:41;85822.43;;;17.58;27.49
55486;BME280;71262;-25.924;28.194;2023-07-31T05:40:07;85823.51;;;18.32;27.21
55486;BME280;71262;-25.924;28.194;2023-07-31T05:42:31;85825.98;;;17.96;27.20
55486;BME280;71262;-25.924;28.194;2023-07-31T05:44:57;85824.50;;;18.05;27.59
55486;BME280;71262;-25.924;28.194;2023-07-31T05:47:22;85828.63;;;18.08;28.14
55486;BME280;71262;-25.924;28.194;2023-07-31T05:49:47;85832.43;;;18.28;28.98
55486;BME280;71262;-25.924;28.194;2023-07-31T05:52:12;85839.54;;;18.28;29.19
55486;BME280;71262;-25.924;28.194;2023-07-31T05:54:37;85847.23;;;18.52;29.77
55486;BME280;71262;-25.924;28.194;2023-07-31T05:57:02;85850.19;;;18.91;29.55
55486;BME280;71262;-25.924;28.194;2023-07-31T05:59:27;85847.64;;;18.86;29.39
55486;BME280;71262;-25.924;28.194;2023-07-31T06:01:53;85836.89;;;18.88;29.41
55486;BME280;71262;-25.924;28.194;2023-07-31T06:04:17;85845.82;;;19.07;32.02
55486;BME280;71262;-25.924;28.194;2023-07-31T06:06:43;85841.04;;;19.35;31.69
55486;BME280;71262;-25.924;28.194;2023-07-31T06:09:08;85845.66;;;19.33;31.33
55486;BME280;71262;-25.924;28.194;2023-07-31T06:11:33;85849.98;;;19.47;31.39
55486;BME280;71262;-25.924;28.194;2023-07-31T06:13:58;85853.62;;;19.73;30.30
55486;BME280;71262;-25.924;28.194;2023-07-31T06:16:23;85853.12;;;19.40;30.85
55486;BME280;71262;-25.924;28.194;2023-07-31T06:18:48;85856.59;;;19.71;30.70
55486;BME280;71262;-25.924;28.194;2023-07-31T06:21:13;85857.05;;;19.48;30.47
55486;BME280;71262;-25.924;28.194;2023-07-31T06:23:38;85855.38;;;19.35;30.44
55486;BME280;71262;-25.924;28.194;2023-07-31T06:26:03;85859.51;;;19.80;30.40
55486;BME280;71262;-25.924;28.194;2023-07-31T06:28:29;85860.13;;;19.99;30.75
55486;BME280;71262;-25.924;28.194;2023-07-31T06:30:53;85865.00;;;19.86;31.22
55486;BME280;71262;-25.924;28.194;2023-07-31T06:33:18;85867.36;;;20.04;31.18
55486;BME280;71262;-25.924;28.194;2023-07-31T06:35:44;85866.41;;;19.96;31.70
55486;BME280;71262;-25.924;28.194;2023-07-31T06:38:09;85866.54;;;19.94;31.67
55486;BME280;71262;-25.924;28.194;2023-07-31T06:40:34;85867.96;;;19.99;32.54
55486;BME280;71262;-25.924;28.194;2023-07-31T06:42:59;85874.53;;;20.02;31.50
55486;BME280;71262;-25.924;28.194;2023-07-31T06:45:24;85874.83;;;20.05;30.96
55486;BME280;71262;-25.924;28.194;2023-07-31T06:47:49;85876.66;;;20.14;31.03
55486;BME280;71262;-25.924;28.194;2023-07-31T06:50:14;85879.90;;;20.25;30.79
55486;BME280;71262;-25.924;28.194;2023-07-31T06:52:39;85883.63;;;20.04;30.61
55486;BME280;71262;-25.924;28.194;2023-07-31T06:55:15;85882.09;;;20.31;31.03
55486;BME280;71262;-25.924;28.194;2023-07-31T06:57:29;85881.43;;;20.25;30.72
55486;BME280;71262;-25.924;28.194;2023-07-31T06:59:54;85883.26;;;20.67;31.30
55486;BME280;71262;-25.924;28.194;2023-07-31T07:02:19;85887.19;;;20.40;31.12
55486;BME280;71262;-25.924;28.194;2023-07-31T07:04:44;85885.82;;;20.24;31.01
55486;BME280;71262;-25.924;28.194;2023-07-31T07:07:09;85885.92;;;20.30;30.53
55486;BME280;71262;-25.924;28.194;2023-07-31T07:09:35;85889.15;;;20.42;30.43
55486;BME280;71262;-25.924;28.194;2023-07-31T07:11:59;85890.06;;;20.41;30.26
55486;BME280;71262;-25.924;28.194;2023-07-31T07:14:25;85897.86;;;20.57;30.15
55486;BME280;71262;-25.924;28.194;2023-07-31T07:16:52;85893.25;;;20.35;30.03
55486;BME280;71262;-25.924;28.194;2023-07-31T07:19:15;85888.89;;;20.62;29.81
55486;BME280;71262;-25.924;28.194;2023-07-31T07:21:40;85892.74;;;20.81;29.77
55486;BME280;71262;-25.924;28.194;2023-07-31T07:24:05;85899.30;;;20.85;29.53
55486;BME280;71262;-25.924;28.194;2023-07-31T07:26:30;85899.66;;;20.42;29.45
55486;BME280;71262;-25.924;28.194;2023-07-31T07:28:55;85899.25;;;20.49;29.28
55486;BME280;71262;-25.924;28.194;2023-07-31T07:31:20;85903.71;;;20.45;29.21
55486;BME280;71262;-25.924;28.194;2023-07-31T07:33:45;85900.68;;;20.74;29.23
55486;BME280;71262;-25.924;28.194;2023-07-31T07:36:10;85902.74;;;20.47;29.07
55486;BME280;71262;-25.924;28.194;2023-07-31T07:38:35;85905.82;;;21.04;28.96
55486;BME280;71262;-25.924;28.194;2023-07-31T07:41:00;85909.76;;;20.54;28.89
55486;BME280;71262;-25.924;28.194;2023-07-31T07:43:25;85911.61;;;20.59;28.72
55486;BME280;71262;-25.924;28.194;2023-07-31T07:45:51;85913.50;;;20.86;28.63
55486;BME280;71262;-25.924;28.194;2023-07-31T07:48:15;85914.09;;;20.52;28.78
55486;BME280;71262;-25.924;28.194;2023-07-31T07:50:41;85917.26;;;20.84;28.47
55486;BME280;71262;-25.924;28.194;2023-07-31T07:53:06;85920.37;;;20.95;28.40
55486;BME280;71262;-25.924;28.194;2023-07-31T07:55:31;85918.57;;;20.88;28.32
55486;BME280;71262;-25.924;28.194;2023-07-31T07:57:56;85918.52;;;20.66;28.29
55486;BME280;71262;-25.924;28.194;2023-07-31T08:00:21;85916.93;;;20.66;28.04
55486;BME280;71262;-25.924;28.194;2023-07-31T08:02:46;85918.52;;;20.68;27.96
55486;BME280;71262;-25.924;28.194;2023-07-31T08:05:11;85918.42;;;20.89;27.94
55486;BME280;71262;-25.924;28.194;2023-07-31T08:07:36;85917.41;;;21.00;27.83
55486;BME280;71262;-25.924;28.194;2023-07-31T08:10:01;85919.19;;;20.71;27.97
55486;BME280;71262;-25.924;28.194;2023-07-31T08:12:26;85918.54;;;20.73;28.04
55486;BME280;71262;-25.924;28.194;2023-07-31T08:14:51;85916.21;;;20.88;27.39
55486;BME280;71262;-25.924;28.194;2023-07-31T08:17:16;85913.86;;;20.79;27.94
55486;BME280;71262;-25.924;28.194;2023-07-31T08:19:42;85916.45;;;21.19;27.57
55486;BME280;71262;-25.924;28.194;2023-07-31T08:22:07;85911.13;;;21.17;27.40
55486;BME280;71262;-25.924;28.194;2023-07-31T08:24:32;85914.25;;;20.91;27.01
55486;BME280;71262;-25.924;28.194;2023-07-31T08:26:57;85910.23;;;21.10;27.49
55486;BME280;71262;-25.924;28.194;2023-07-31T08:29:22;85912.38;;;20.91;27.18
55486;BME280;71262;-25.924;28.194;2023-07-31T08:31:47;85910.19;;;20.91;27.24
55486;BME280;71262;-25.924;28.194;2023-07-31T08:34:12;85906.30;;;21.40;27.22
55486;BME280;71262;-25.924;28.194;2023-07-31T08:36:37;85905.11;;;20.94;27.19
55486;BME280;71262;-25.924;28.194;2023-07-31T08:39:02;85905.46;;;20.96;27.31
55486;BME280;71262;-25.924;28.194;2023-07-31T08:41:28;85904.82;;;21.13;26.45
55486;BME280;71262;-25.924;28.194;2023-07-31T08:43:52;85905.14;;;21.31;26.83
55486;BME280;71262;-25.924;28.194;2023-07-31T08:46:18;85905.71;;;21.29;26.44
55486;BME280;71262;-25.924;28.194;2023-07-31T08:48:43;85901.10;;;21.12;26.70
55486;BME280;71262;-25.924;28.194;2023-07-31T08:51:07;85893.53;;;21.35;26.34
55486;BME280;71262;-25.924;28.194;2023-07-31T08:53:33;85896.29;;;20.93;26.11
55486;BME280;71262;-25.924;28.194;2023-07-31T08:55:59;85896.70;;;20.90;26.61
55486;BME280;71262;-25.924;28.194;2023-07-31T08:58:24;85893.84;;;21.22;26.08
55486;BME280;71262;-25.924;28.194;2023-07-31T09:00:48;85889.39;;;20.98;26.23
55486;BME280;71262;-25.924;28.194;2023-07-31T09:03:15;85891.35;;;21.02;25.87
55486;BME280;71262;-25.924;28.194;2023-07-31T09:05:41;85884.00;;;21.41;26.51
55486;BME280;71262;-25.924;28.194;2023-07-31T09:08:05;85875.98;;;21.41;25.80
55486;BME280;71262;-25.924;28.194;2023-07-31T09:10:29;85874.52;;;21.00;25.79
55486;BME280;71262;-25.924;28.194;2023-07-31T09:12:53;85869.35;;;20.84;26.43
55486;BME280;71262;-25.924;28.194;2023-07-31T09:15:19;85866.23;;;21.42;25.72
55486;BME280;71262;-25.924;28.194;2023-07-31T09:17:44;85863.26;;;21.52;25.59
55486;BME280;71262;-25.924;28.194;2023-07-31T09:20:13;85858.75;;;21.24;25.68
55486;BME280;71262;-25.924;28.194;2023-07-31T09:22:37;85853.93;;;21.01;25.62
55486;BME280;71262;-25.924;28.194;2023-07-31T09:27:24;85849.45;;;21.27;25.53
55486;BME280;71262;-25.924;28.194;2023-07-31T09:29:58;85852.45;;;21.29;25.42
55486;BME280;71262;-25.924;28.194;2023-07-31T09:32:17;85853.96;;;21.23;25.44
55486;BME280;71262;-25.924;28.194;2023-07-31T09:34:39;85851.61;;;21.24;25.44
55486;BME280;71262;-25.924;28.194;2023-07-31T09:37:05;85845.08;;;21.23;25.34
55486;BME280;71262;-25.924;28.194;2023-07-31T09:39:30;85843.36;;;20.82;25.32
55486;BME280;71262;-25.924;28.194;2023-07-31T09:41:55;85837.70;;;20.89;25.42
55486;BME280;71262;-25.924;28.194;2023-07-31T09:44:19;85837.62;;;20.81;25.54
55486;BME280;71262;-25.924;28.194;2023-07-31T09:46:45;85833.27;;;20.87;25.42
55486;BME280;71262;-25.924;28.194;2023-07-31T09:49:10;85832.12;;;20.85;25.33
55486;BME280;71262;-25.924;28.194;2023-07-31T09:51:35;85827.95;;;20.74;25.43
55486;BME280;71262;-25.924;28.194;2023-07-31T09:54:01;85821.83;;;20.69;25.38
55486;BME280;71262;-25.924;28.194;2023-07-31T09:56:26;85823.63;;;20.74;25.29
55486;BME280;71262;-25.924;28.194;2023-07-31T09:58:50;85818.17;;;20.66;25.30
55486;BME280;71262;-25.924;28.194;2023-07-31T10:01:15;85812.70;;;20.80;25.31
55486;BME280;71262;-25.924;28.194;2023-07-31T10:03:41;85809.52;;;20.67;25.40
55486;BME280;71262;-25.924;28.194;2023-07-31T10:06:06;85803.76;;;20.60;25.46
55486;BME280;71262;-25.924;28.194;2023-07-31T10:08:32;85795.82;;;20.75;25.23
55486;BME280;71262;-25.924;28.194;2023-07-31T10:10:58;85793.19;;;20.95;25.30
55486;BME280;71262;-25.924;28.194;2023-07-31T10:13:20;85794.09;;;20.70;25.23
55486;BME280;71262;-25.924;28.194;2023-07-31T10:15:46;85788.67;;;20.47;25.21
55486;BME280;71262;-25.924;28.194;2023-07-31T10:18:11;85784.91;;;20.92;25.26
55486;BME280;71262;-25.924;28.194;2023-07-31T10:20:36;85782.72;;;20.68;25.18
55486;BME280;71262;-25.924;28.194;2023-07-31T10:23:01;85778.46;;;20.79;25.31
55486;BME280;71262;-25.924;28.194;2023-07-31T10:25:27;85774.63;;;20.62;25.20
55486;BME280;71262;-25.924;28.194;2023-07-31T10:27:51;85768.17;;;20.63;25.11
55486;BME280;71262;-25.924;28.194;2023-07-31T10:30:17;85775.17;;;20.82;25.13
55486;BME280;71262;-25.924;28.194;2023-07-31T10:32:41;85771.74;;;20.25;25.19
55486;BME280;71262;-25.924;28.194;2023-07-31T10:35:07;85767.34;;;20.47;25.13
55486;BME280;71262;-25.924;28.194;2023-07-31T10:37:37;85763.86;;;20.41;25.21
55486;BME280;71262;-25.924;28.194;2023-07-31T10:39:59;85766.27;;;20.42;25.19
55486;BME280;71262;-25.924;28.194;2023-07-31T10:42:28;85761.77;;;20.34;25.20
55486;BME280;71262;-25.924;28.194;2023-07-31T10:44:47;85757.60;;;20.34;25.13
55486;BME280;71262;-25.924;28.194;2023-07-31T10:47:15;85758.32;;;20.36;25.09
55486;BME280;71262;-25.924;28.194;2023-07-31T10:49:39;85751.61;;;20.60;25.00
55486;BME280;71262;-25.924;28.194;2023-07-31T10:52:04;85742.33;;;20.56;25.01
55486;BME280;71262;-25.924;28.194;2023-07-31T10:54:28;85742.50;;;20.56;24.96
55486;BME280;71262;-25.924;28.194;2023-07-31T10:56:52;85743.34;;;20.32;24.98
55486;BME280;71262;-25.924;28.194;2023-07-31T10:59:17;85738.42;;;20.64;25.00
55486;BME280;71262;-25.924;28.194;2023-07-31T11:01:50;85734.36;;;20.26;25.12
55486;BME280;71262;-25.924;28.194;2023-07-31T11:04:11;85732.84;;;20.19;25.22
55486;BME280;71262;-25.924;28.194;2023-07-31T11:06:32;85724.52;;;20.50;25.22
55486;BME280;71262;-25.924;28.194;2023-07-31T11:08:57;85719.86;;;20.31;25.22
55486;BME280;71262;-25.924;28.194;2023-07-31T11:11:22;85720.24;;;20.19;25.31
55486;BME280;71262;-25.924;28.194;2023-07-31T11:13:49;85717.43;;;20.41;25.40
55486;BME280;71262;-25.924;28.194;2023-07-31T11:16:13;85713.88;;;20.21;25.62
55486;BME280;71262;-25.924;28.194;2023-07-31T11:18:40;85709.78;;;20.13;25.75
55486;BME280;71262;-25.924;28.194;2023-07-31T11:21:03;85708.59;;;19.99;25.94
55486;BME280;71262;-25.924;28.194;2023-07-31T11:23:27;85707.58;;;20.13;26.04
55486;BME280;71262;-25.924;28.194;2023-07-31T11:25:53;85707.22;;;19.96;26.18
55486;BME280;71262;-25.924;28.194;2023-07-31T11:28:19;85703.08;;;19.81;26.13
55486;BME280;71262;-25.924;28.194;2023-07-31T11:30:44;85700.70;;;19.97;26.17
55486;BME280;71262;-25.924;28.194;2023-07-31T11:33:10;85704.11;;;19.73;26.19
55486;BME280;71262;-25.924;28.194;2023-07-31T11:35:35;85697.65;;;19.84;26.29
55486;BME280;71262;-25.924;28.194;2023-07-31T11:37:58;85694.06;;;19.83;26.24
55486;BME280;71262;-25.924;28.194;2023-07-31T11:40:23;85692.49;;;19.59;26.26
55486;BME280;71262;-25.924;28.194;2023-07-31T11:42:48;85690.14;;;19.55;26.30
55486;BME280;71262;-25.924;28.194;2023-07-31T11:45:14;85685.88;;;19.91;26.34
55486;BME280;71262;-25.924;28.194;2023-07-31T11:47:39;85680.22;;;19.93;26.33
55486;BME280;71262;-25.924;28.194;2023-07-31T11:50:06;85681.00;;;19.43;26.35
55486;BME280;71262;-25.924;28.194;2023-07-31T11:52:30;85675.70;;;19.69;26.31
55486;BME280;71262;-25.924;28.194;2023-07-31T11:54:54;85681.41;;;19.44;26.30
55486;BME280;71262;-25.924;28.194;2023-07-31T11:57:19;85677.31;;;19.68;26.27
55486;BME280;71262;-25.924;28.194;2023-07-31T11:59:44;85675.03;;;19.39;26.29
55486;BME280;71262;-25.924;28.194;2023-07-31T12:02:10;85671.85;;;19.82;26.30
55486;BME280;71262;-25.924;28.194;2023-07-31T12:04:35;85667.88;;;19.36;26.28
55486;BME280;71262;-25.924;28.194;2023-07-31T12:07:01;85670.66;;;19.49;26.32
55486;BME280;71262;-25.924;28.194;2023-07-31T12:09:25;85668.62;;;19.73;26.29
55486;BME280;71262;-25.924;28.194;2023-07-31T12:11:50;85666.00;;;19.71;26.30
55486;BME280;71262;-25.924;28.194;2023-07-31T12:14:20;85660.58;;;19.67;26.26
55486;BME280;71262;-25.924;28.194;2023-07-31T12:16:40;85664.34;;;19.42;26.28
55486;BME280;71262;-25.924;28.194;2023-07-31T12:19:05;85661.57;;;19.65;26.25
55486;BME280;71262;-25.924;28.194;2023-07-31T12:21:30;85660.22;;;19.37;26.25
55486;BME280;71262;-25.924;28.194;2023-07-31T12:23:56;85659.90;;;19.59;26.27
55486;BME280;71262;-25.924;28.194;2023-07-31T12:26:20;85664.35;;;19.38;26.26
55486;BME280;71262;-25.924;28.194;2023-07-31T12:28:47;85664.75;;;19.57;26.29
55486;BME280;71262;-25.924;28.194;2023-07-31T12:31:12;85661.34;;;19.63;26.25
55486;BME280;71262;-25.924;28.194;2023-07-31T12:33:38;85657.29;;;19.43;26.22